sensor_id;sensor_type;location;lat;lon;timestamp;pressure;altitude;pressure_sealevel;temperature;humidity
79540;BME280;68991;52.122;5.406;2023-07-08T00:00:29;101948.38;;;22.15;61.98
79540;BME280;68991;52.122;5.406;2023-07-08T00:02:56;101947.50;;;22.15;61.62
79540;BME280;68991;52.122;5.406;2023-07-08T00:05:24;101938.41;;;22.14;61.74
79540;BME280;68991;52.122;5.406;2023-07-08T00:07:51;101939.28;;;22.15;62.12
79540;BME280;68991;52.122;5.406;2023-07-08T00:10:21;101933.06;;;22.13;61.98
79540;BME280;68991;52.122;5.406;2023-07-08T00:12:49;101925.81;;;22.12;61.71
79540;BME280;68991;52.122;5.406;2023-07-08T00:15:17;101920.34;;;22.12;61.47
79540;BME280;68991;52.122;5.406;2023-07-08T00:17:44;101925.97;;;22.10;61.75
79540;BME280;68991;52.122;5.406;2023-07-08T00:20:32;101923.22;;;22.10;61.66
79540;BME280;68991;52.122;5.406;2023-07-08T00:22:59;101919.63;;;22.10;61.49
79540;BME280;68991;52.122;5.406;2023-07-08T00:25:28;101915.13;;;22.09;61.61
79540;BME280;68991;52.122;5.406;2023-07-08T00:27:54;101919.72;;;22.08;61.60
79540;BME280;68991;52.122;5.406;2023-07-08T00:30:27;101918.84;;;22.08;61.45
79540;BME280;68991;52.122;5.406;2023-07-08T00:32:55;101914.38;;;22.07;61.82
79540;BME280;68991;52.122;5.406;2023-07-08T00:35:34;101919.00;;;22.06;61.55
79540;BME280;68991;52.122;5.406;2023-07-08T00:38:21;101918.13;;;22.06;61.84
79540;BME280;68991;52.122;5.406;2023-07-08T00:41:04;101925.47;;;22.05;61.92
79540;BME280;68991;52.122;5.406;2023-07-08T00:43:46;101918.22;;;22.04;61.47
79540;BME280;68991;52.122;5.406;2023-07-08T00:51:36;101903.81;;;22.02;61.89
79540;BME280;68991;52.122;5.406;2023-07-08T00:54:17;101910.25;;;22.01;61.89
79540;BME280;68991;52.122;5.406;2023-07-08T00:57:01;101903.03;;;22.00;61.73
79540;BME280;68991;52.122;5.406;2023-07-08T01:02:00;101895.84;;;21.99;61.70
79540;BME280;68991;52.122;5.406;2023-07-08T01:04:32;101911.41;;;21.99;61.83
79540;BME280;68991;52.122;5.406;2023-07-08T01:07:01;101909.63;;;21.98;61.98
79540;BME280;68991;52.122;5.406;2023-07-08T01:09:37;101907.03;;;21.96;61.56
79540;BME280;68991;52.122;5.406;2023-07-08T01:12:08;101896.09;;;21.96;61.84
79540;BME280;68991;52.122;5.406;2023-07-08T01:14:38;101894.34;;;21.95;61.80
79540;BME280;68991;52.122;5.406;2023-07-08T01:17:09;101893.47;;;21.95;61.83
79540;BME280;68991;52.122;5.406;2023-07-08T01:19:41;101890.72;;;21.95;61.42
79540;BME280;68991;52.122;5.406;2023-07-08T01:22:08;101889.84;;;21.94;61.72
79540;BME280;68991;52.122;5.406;2023-07-08T01:24:38;101896.31;;;21.93;61.72
79540;BME280;68991;52.122;5.406;2023-07-08T01:27:07;101890.00;;;21.93;61.23
79540;BME280;68991;52.122;5.406;2023-07-08T01:29:34;101885.50;;;21.92;61.55
79540;BME280;68991;52.122;5.406;2023-07-08T01:32:01;101885.50;;;21.92;61.87
79540;BME280;68991;52.122;5.406;2023-07-08T01:34:33;101891.97;;;21.91;61.44
79540;BME280;68991;52.122;5.406;2023-07-08T01:37:01;101885.59;;;21.90;61.31
79540;BME280;68991;52.122;5.406;2023-07-08T01:39:31;101884.69;;;21.90;61.64
79540;BME280;68991;52.122;5.406;2023-07-08T01:41:58;101883.84;;;21.89;61.68
79540;BME280;68991;52.122;5.406;2023-07-08T01:44:30;101881.13;;;21.89;61.74
79540;BME280;68991;52.122;5.406;2023-07-08T01:47:11;101879.38;;;21.88;61.34
79540;BME280;68991;52.122;5.406;2023-07-08T01:49:41;101883.97;;;21.88;61.52
79540;BME280;68991;52.122;5.406;2023-07-08T01:52:10;101878.59;;;21.86;61.56
79540;BME280;68991;52.122;5.406;2023-07-08T01:54:37;101884.06;;;21.86;61.86
79540;BME280;68991;52.122;5.406;2023-07-08T01:57:04;101883.22;;;21.86;61.47
79540;BME280;68991;52.122;5.406;2023-07-08T01:59:30;101871.41;;;21.85;61.71
79540;BME280;68991;52.122;5.406;2023-07-08T02:01:57;101870.53;;;21.84;61.61
79540;BME280;68991;52.122;5.406;2023-07-08T02:04:25;101865.06;;;21.84;61.60
79540;BME280;68991;52.122;5.406;2023-07-08T02:06:58;101860.56;;;21.83;61.43
79540;BME280;68991;52.122;5.406;2023-07-08T02:09:25;101863.31;;;21.83;61.90
79540;BME280;68991;52.122;5.406;2023-07-08T02:11:53;101854.22;;;21.83;61.85
79540;BME280;68991;52.122;5.406;2023-07-08T02:14:20;101850.59;;;21.82;61.34
79540;BME280;68991;52.122;5.406;2023-07-08T02:16:47;101844.38;;;21.80;61.58
79540;BME280;68991;52.122;5.406;2023-07-08T02:19:13;101849.88;;;21.80;61.85
79540;BME280;68991;52.122;5.406;2023-07-08T02:21:40;101851.72;;;21.80;61.95
79540;BME280;68991;52.122;5.406;2023-07-08T02:24:07;101842.63;;;21.79;61.53
79540;BME280;68991;52.122;5.406;2023-07-08T02:26:33;101842.63;;;21.79;61.65
79540;BME280;68991;52.122;5.406;2023-07-08T02:29:00;101849.13;;;21.78;61.37
79540;BME280;68991;52.122;5.406;2023-07-08T02:31:27;101851.00;;;21.78;61.53
79540;BME280;68991;52.122;5.406;2023-07-08T02:33:54;101839.16;;;21.77;61.51
79540;BME280;68991;52.122;5.406;2023-07-08T02:36:20;101835.56;;;21.77;61.82
79540;BME280;68991;52.122;5.406;2023-07-08T02:38:47;101834.69;;;21.76;61.36
79540;BME280;68991;52.122;5.406;2023-07-08T02:41:14;101835.66;;;21.75;61.90
79540;BME280;68991;52.122;5.406;2023-07-08T02:43:40;101830.19;;;21.75;61.79
79540;BME280;68991;52.122;5.406;2023-07-08T02:46:07;101832.09;;;21.75;61.41
79540;BME280;68991;52.122;5.406;2023-07-08T02:48:34;101824.84;;;21.74;61.87
79540;BME280;68991;52.122;5.406;2023-07-08T02:51:02;101832.19;;;21.73;61.46
79540;BME280;68991;52.122;5.406;2023-07-08T02:53:29;101826.72;;;21.73;61.63
79540;BME280;68991;52.122;5.406;2023-07-08T02:55:56;101825.84;;;21.73;61.88
79540;BME280;68991;52.122;5.406;2023-07-08T02:58:23;101828.56;;;21.73;61.45
79540;BME280;68991;52.122;5.406;2023-07-08T03:00:54;101825.97;;;21.71;61.70
79540;BME280;68991;52.122;5.406;2023-07-08T03:03:21;101820.50;;;21.71;61.80
79540;BME280;68991;52.122;5.406;2023-07-08T03:06:00;101828.84;;;21.70;61.92
79540;BME280;68991;52.122;5.406;2023-07-08T03:08:27;101824.22;;;21.70;61.60
79540;BME280;68991;52.122;5.406;2023-07-08T03:10:56;101824.34;;;21.69;61.60
79540;BME280;68991;52.122;5.406;2023-07-08T03:13:24;101819.00;;;21.67;61.75
79540;BME280;68991;52.122;5.406;2023-07-08T03:15:51;101821.59;;;21.69;61.53
79540;BME280;68991;52.122;5.406;2023-07-08T03:18:18;101825.34;;;21.68;61.44
79540;BME280;68991;52.122;5.406;2023-07-08T03:20:47;101822.63;;;21.68;61.65
79540;BME280;68991;52.122;5.406;2023-07-08T03:23:14;101820.00;;;21.66;61.43
79540;BME280;68991;52.122;5.406;2023-07-08T03:25:41;101821.84;;;21.66;61.96
79540;BME280;68991;52.122;5.406;2023-07-08T03:28:09;101817.25;;;21.66;61.89
79540;BME280;68991;52.122;5.406;2023-07-08T03:30:42;101830.94;;;21.66;61.74
79540;BME280;68991;52.122;5.406;2023-07-08T03:33:10;101831.06;;;21.65;61.85
79540;BME280;68991;52.122;5.406;2023-07-08T03:35:37;101824.72;;;21.64;61.64
79540;BME280;68991;52.122;5.406;2023-07-08T03:38:05;101825.72;;;21.63;61.34
79540;BME280;68991;52.122;5.406;2023-07-08T03:40:31;101829.34;;;21.64;61.61
79540;BME280;68991;52.122;5.406;2023-07-08T03:42:58;101828.47;;;21.63;61.85
79540;BME280;68991;52.122;5.406;2023-07-08T03:45:25;101833.06;;;21.63;61.80
79540;BME280;68991;52.122;5.406;2023-07-08T03:47:52;101837.66;;;21.62;61.90
79540;BME280;68991;52.122;5.406;2023-07-08T03:50:24;101835.91;;;21.61;61.91
79540;BME280;68991;52.122;5.406;2023-07-08T03:52:53;101831.31;;;21.62;61.67
79540;BME280;68991;52.122;5.406;2023-07-08T03:55:21;101833.16;;;21.61;61.93
79540;BME280;68991;52.122;5.406;2023-07-08T03:57:48;101833.16;;;21.61;62.27
79540;BME280;68991;52.122;5.406;2023-07-08T04:00:15;101830.44;;;21.61;61.68
79540;BME280;68991;52.122;5.406;2023-07-08T04:02:42;101836.91;;;21.60;61.85
79540;BME280;68991;52.122;5.406;2023-07-08T04:05:16;101834.19;;;21.60;61.68
79540;BME280;68991;52.122;5.406;2023-07-08T04:07:43;101823.22;;;21.60;61.37
79540;BME280;68991;52.122;5.406;2023-07-08T04:10:10;101829.69;;;21.59;61.92
79540;BME280;68991;52.122;5.406;2023-07-08T04:12:37;101828.72;;;21.60;61.43
79540;BME280;68991;52.122;5.406;2023-07-08T04:15:04;101836.16;;;21.58;61.55
79540;BME280;68991;52.122;5.406;2023-07-08T04:17:31;101839.75;;;21.59;61.87
79540;BME280;68991;52.122;5.406;2023-07-08T04:19:57;101836.16;;;21.58;61.51
79540;BME280;68991;52.122;5.406;2023-07-08T04:22:24;101838.00;;;21.58;61.70
79540;BME280;68991;52.122;5.406;2023-07-08T04:24:50;101840.75;;;21.58;61.82
79540;BME280;68991;52.122;5.406;2023-07-08T04:27:17;101829.81;;;21.58;61.76
79540;BME280;68991;52.122;5.406;2023-07-08T04:29:44;101836.16;;;21.58;61.56
79540;BME280;68991;52.122;5.406;2023-07-08T04:32:11;101828.97;;;21.57;61.59
79540;BME280;68991;52.122;5.406;2023-07-08T04:34:37;101831.69;;;21.57;61.99
79540;BME280;68991;52.122;5.406;2023-07-08T04:37:04;101828.97;;;21.57;61.83
79540;BME280;68991;52.122;5.406;2023-07-08T04:39:33;101836.28;;;21.57;61.55
79540;BME280;68991;52.122;5.406;2023-07-08T04:41:59;101837.16;;;21.57;61.78
79540;BME280;68991;52.122;5.406;2023-07-08T04:44:26;101841.63;;;21.58;61.53
79540;BME280;68991;52.122;5.406;2023-07-08T04:46:56;101840.75;;;21.58;61.24
79540;BME280;68991;52.122;5.406;2023-07-08T04:49:24;101834.44;;;21.57;61.40
79540;BME280;68991;52.122;5.406;2023-07-08T04:51:51;101840.91;;;21.56;61.74
79540;BME280;68991;52.122;5.406;2023-07-08T04:54:18;101837.16;;;21.57;61.22
79540;BME280;68991;52.122;5.406;2023-07-08T04:56:46;101837.16;;;21.57;61.33
79540;BME280;68991;52.122;5.406;2023-07-08T04:59:15;101839.91;;;21.57;61.69
79540;BME280;68991;52.122;5.406;2023-07-08T05:01:42;101838.00;;;21.58;61.34
79540;BME280;68991;52.122;5.406;2023-07-08T05:04:14;101838.88;;;21.58;61.00
79540;BME280;68991;52.122;5.406;2023-07-08T05:06:40;101836.16;;;21.58;60.99
79540;BME280;68991;52.122;5.406;2023-07-08T05:09:08;101838.88;;;21.58;61.37
79540;BME280;68991;52.122;5.406;2023-07-08T05:11:34;101827.06;;;21.58;60.94
79540;BME280;68991;52.122;5.406;2023-07-08T05:14:02;101825.22;;;21.58;61.24
79540;BME280;68991;52.122;5.406;2023-07-08T05:16:29;101828.81;;;21.59;61.04
79540;BME280;68991;52.122;5.406;2023-07-08T05:18:56;101817.88;;;21.59;61.44
79540;BME280;68991;52.122;5.406;2023-07-08T05:21:23;101817.75;;;21.60;60.90
79540;BME280;68991;52.122;5.406;2023-07-08T05:23:49;101829.59;;;21.61;61.18
79540;BME280;68991;52.122;5.406;2023-07-08T05:26:16;101824.94;;;21.61;61.07
79540;BME280;68991;52.122;5.406;2023-07-08T05:28:43;101830.44;;;21.61;60.79
79540;BME280;68991;52.122;5.406;2023-07-08T05:31:10;101822.22;;;21.61;59.98
79540;BME280;68991;52.122;5.406;2023-07-08T05:33:36;101821.72;;;21.56;57.87
79540;BME280;68991;52.122;5.406;2023-07-08T05:36:03;101832.94;;;21.53;57.95
79540;BME280;68991;52.122;5.406;2023-07-08T05:38:30;101831.44;;;21.49;57.19
79540;BME280;68991;52.122;5.406;2023-07-08T05:40:58;101828.19;;;21.44;57.15
79540;BME280;68991;52.122;5.406;2023-07-08T05:43:25;101819.09;;;21.44;56.85
79540;BME280;68991;52.122;5.406;2023-07-08T05:45:57;101826.47;;;21.43;56.63
79540;BME280;68991;52.122;5.406;2023-07-08T05:48:38;101821.72;;;21.45;56.57
79540;BME280;68991;52.122;5.406;2023-07-08T05:51:04;101816.97;;;21.47;56.43
79540;BME280;68991;52.122;5.406;2023-07-08T05:53:31;101819.84;;;21.46;56.03
79540;BME280;68991;52.122;5.406;2023-07-08T05:55:57;101820.59;;;21.48;56.50
79540;BME280;68991;52.122;5.406;2023-07-08T05:58:24;101817.84;;;21.48;56.12
79540;BME280;68991;52.122;5.406;2023-07-08T06:00:56;101817.84;;;21.48;56.13
79540;BME280;68991;52.122;5.406;2023-07-08T06:03:24;101823.22;;;21.49;56.29
79540;BME280;68991;52.122;5.406;2023-07-08T06:05:50;101820.50;;;21.49;55.93
79540;BME280;68991;52.122;5.406;2023-07-08T06:08:17;101821.47;;;21.48;57.26
79540;BME280;68991;52.122;5.406;2023-07-08T06:10:44;101826.44;;;21.54;57.88
79540;BME280;68991;52.122;5.406;2023-07-08T06:13:12;101829.59;;;21.61;58.03
79540;BME280;68991;52.122;5.406;2023-07-08T06:15:39;101828.22;;;21.66;58.52
79540;BME280;68991;52.122;5.406;2023-07-08T06:18:06;101832.56;;;21.69;58.70
79540;BME280;68991;52.122;5.406;2023-07-08T06:20:32;101825.97;;;21.71;58.56
79540;BME280;68991;52.122;5.406;2023-07-08T06:22:59;101823.97;;;21.73;58.95
79540;BME280;68991;52.122;5.406;2023-07-08T06:25:26;101818.25;;;21.76;58.75
79540;BME280;68991;52.122;5.406;2023-07-08T06:27:52;101820.88;;;21.78;58.77
79540;BME280;68991;52.122;5.406;2023-07-08T06:30:20;101821.50;;;21.81;58.95
79540;BME280;68991;52.122;5.406;2023-07-08T06:32:47;101830.44;;;21.83;59.01
79540;BME280;68991;52.122;5.406;2023-07-08T06:35:13;101832.06;;;21.86;58.77
79540;BME280;68991;52.122;5.406;2023-07-08T06:37:40;101832.81;;;21.88;59.18
79540;BME280;68991;52.122;5.406;2023-07-08T06:40:07;101836.44;;;21.89;59.32
79540;BME280;68991;52.122;5.406;2023-07-08T06:42:34;101838.16;;;21.90;59.34
79540;BME280;68991;52.122;5.406;2023-07-08T06:45:00;101835.41;;;21.90;58.89
79540;BME280;68991;52.122;5.406;2023-07-08T06:47:27;101840.88;;;21.90;58.75
79540;BME280;68991;52.122;5.406;2023-07-08T06:49:53;101840.88;;;21.90;59.02
79540;BME280;68991;52.122;5.406;2023-07-08T06:52:24;101838.16;;;21.90;58.58
79540;BME280;68991;52.122;5.406;2023-07-08T06:54:50;101831.84;;;21.89;58.60
79540;BME280;68991;52.122;5.406;2023-07-08T06:57:17;101817.16;;;21.90;58.69
79540;BME280;68991;52.122;5.406;2023-07-08T06:59:43;101821.66;;;21.91;58.90
79540;BME280;68991;52.122;5.406;2023-07-08T07:02:10;101830.84;;;21.90;58.89
79540;BME280;68991;52.122;5.406;2023-07-08T07:04:36;101830.72;;;21.92;58.69
79540;BME280;68991;52.122;5.406;2023-07-08T07:07:03;101823.41;;;21.92;58.64
79540;BME280;68991;52.122;5.406;2023-07-08T07:09:31;101819.63;;;21.93;58.78
79540;BME280;68991;52.122;5.406;2023-07-08T07:11:57;101824.13;;;21.94;59.30
79540;BME280;68991;52.122;5.406;2023-07-08T07:14:24;101819.53;;;21.95;59.20
79540;BME280;68991;52.122;5.406;2023-07-08T07:16:53;101817.66;;;21.95;58.78
79540;BME280;68991;52.122;5.406;2023-07-08T07:19:33;101824.00;;;21.96;59.15
79540;BME280;68991;52.122;5.406;2023-07-08T07:22:00;101820.41;;;21.95;59.34
79540;BME280;68991;52.122;5.406;2023-07-08T07:24:26;101816.69;;;21.96;58.91
79540;BME280;68991;52.122;5.406;2023-07-08T07:26:53;101818.41;;;21.97;59.00
79540;BME280;68991;52.122;5.406;2023-07-08T07:29:22;101820.25;;;21.97;59.30
79540;BME280;68991;52.122;5.406;2023-07-08T07:31:49;101819.28;;;21.98;59.44
79540;BME280;68991;52.122;5.406;2023-07-08T07:34:17;101827.38;;;21.99;59.21
79540;BME280;68991;52.122;5.406;2023-07-08T07:36:44;101821.91;;;21.99;58.91
79540;BME280;68991;52.122;5.406;2023-07-08T07:39:10;101811.81;;;22.00;58.90
79540;BME280;68991;52.122;5.406;2023-07-08T07:41:37;101815.41;;;22.00;59.11
79540;BME280;68991;52.122;5.406;2023-07-08T07:44:03;101811.66;;;22.01;59.31
79540;BME280;68991;52.122;5.406;2023-07-08T07:46:30;101821.75;;;22.01;59.32
79540;BME280;68991;52.122;5.406;2023-07-08T07:48:56;101822.50;;;22.03;59.30
79540;BME280;68991;52.122;5.406;2023-07-08T07:51:23;101819.78;;;22.03;58.89
79540;BME280;68991;52.122;5.406;2023-07-08T07:53:49;101814.16;;;22.04;59.40
79540;BME280;68991;52.122;5.406;2023-07-08T07:56:16;101813.16;;;22.05;59.00
79540;BME280;68991;52.122;5.406;2023-07-08T07:58:42;101806.81;;;22.05;59.22
79540;BME280;68991;52.122;5.406;2023-07-08T08:01:09;101803.09;;;22.06;59.20
79540;BME280;68991;52.122;5.406;2023-07-08T08:03:36;101799.34;;;22.07;58.92
79540;BME280;68991;52.122;5.406;2023-07-08T08:06:02;101803.81;;;22.08;59.41
79540;BME280;68991;52.122;5.406;2023-07-08T08:08:29;101799.09;;;22.10;59.04
79540;BME280;68991;52.122;5.406;2023-07-08T08:10:55;101804.31;;;22.13;59.36
79540;BME280;68991;52.122;5.406;2023-07-08T08:13:22;101790.47;;;22.14;59.14
79540;BME280;68991;52.122;5.406;2023-07-08T08:15:48;101793.09;;;22.16;59.32
79540;BME280;68991;52.122;5.406;2023-07-08T08:18:15;101801.06;;;22.19;58.80
79540;BME280;68991;52.122;5.406;2023-07-08T08:20:42;101808.28;;;22.20;59.44
79540;BME280;68991;52.122;5.406;2023-07-08T08:23:08;101804.69;;;22.19;59.27
79540;BME280;68991;52.122;5.406;2023-07-08T08:25:34;101810.03;;;22.21;59.68
79540;BME280;68991;52.122;5.406;2023-07-08T08:28:01;101804.56;;;22.21;59.27
79540;BME280;68991;52.122;5.406;2023-07-08T08:30:27;101804.31;;;22.24;59.65
79540;BME280;68991;52.122;5.406;2023-07-08T08:32:54;101809.63;;;22.25;59.34
79540;BME280;68991;52.122;5.406;2023-07-08T08:35:20;101808.75;;;22.25;59.59
79540;BME280;68991;52.122;5.406;2023-07-08T08:37:47;101806.78;;;22.27;59.53
79540;BME280;68991;52.122;5.406;2023-07-08T08:40:16;101801.31;;;22.27;59.80
79540;BME280;68991;52.122;5.406;2023-07-08T08:43:02;101808.28;;;22.31;59.31
79540;BME280;68991;52.122;5.406;2023-07-08T08:45:32;101815.34;;;22.33;59.39
79540;BME280;68991;52.122;5.406;2023-07-08T08:48:03;101820.72;;;22.35;59.21
79540;BME280;68991;52.122;5.406;2023-07-08T08:50:32;101819.59;;;22.38;59.04
79540;BME280;68991;52.122;5.406;2023-07-08T08:53:02;101825.78;;;22.40;58.84
79540;BME280;68991;52.122;5.406;2023-07-08T08:55:30;101826.56;;;22.42;59.11
79540;BME280;68991;52.122;5.406;2023-07-08T09:01:00;101825.41;;;22.44;59.37
79540;BME280;68991;52.122;5.406;2023-07-08T09:03:45;101824.44;;;22.45;59.19
79540;BME280;68991;52.122;5.406;2023-07-08T09:06:21;101829.63;;;22.48;59.42
79540;BME280;68991;52.122;5.406;2023-07-08T09:08:50;101821.28;;;22.50;59.64
79540;BME280;68991;52.122;5.406;2023-07-08T09:11:52;101813.03;;;22.50;59.48
79540;BME280;68991;52.122;5.406;2023-07-08T09:14:31;101813.66;;;22.53;59.53
79540;BME280;68991;52.122;5.406;2023-07-08T09:19:44;101818.03;;;22.56;59.74
79540;BME280;68991;52.122;5.406;2023-07-08T09:22:35;101821.50;;;22.58;59.57
79540;BME280;68991;52.122;5.406;2023-07-08T09:27:46;101812.91;;;22.62;59.54
79540;BME280;68991;52.122;5.406;2023-07-08T09:30:15;101807.41;;;22.62;59.85
79540;BME280;68991;52.122;5.406;2023-07-08T09:32:42;101809.16;;;22.63;59.35
79540;BME280;68991;52.122;5.406;2023-07-08T09:35:22;101799.91;;;22.64;59.41
79540;BME280;68991;52.122;5.406;2023-07-08T09:37:49;101807.16;;;22.65;59.50
79540;BME280;68991;52.122;5.406;2023-07-08T09:40:21;101807.91;;;22.67;59.29
79540;BME280;68991;52.122;5.406;2023-07-08T09:42:50;101812.41;;;22.68;59.54
79540;BME280;68991;52.122;5.406;2023-07-08T09:45:20;101815.91;;;22.70;59.13
79540;BME280;68991;52.122;5.406;2023-07-08T09:47:51;101814.88;;;22.71;59.46
79540;BME280;68991;52.122;5.406;2023-07-08T09:50:27;101813.00;;;22.72;59.37
79540;BME280;68991;52.122;5.406;2023-07-08T09:52:57;101807.53;;;22.72;59.13
79540;BME280;68991;52.122;5.406;2023-07-08T09:55:26;101810.88;;;22.75;59.20
79540;BME280;68991;52.122;5.406;2023-07-08T09:57:55;101809.88;;;22.76;58.84
79540;BME280;68991;52.122;5.406;2023-07-08T10:00:32;101817.84;;;22.79;59.36
79540;BME280;68991;52.122;5.406;2023-07-08T10:03:08;101817.47;;;22.84;59.35
79540;BME280;68991;52.122;5.406;2023-07-08T10:05:39;101819.94;;;22.87;59.27
79540;BME280;68991;52.122;5.406;2023-07-08T10:08:15;101816.91;;;22.90;59.27
79540;BME280;68991;52.122;5.406;2023-07-08T10:10:42;101820.28;;;22.94;59.54
79540;BME280;68991;52.122;5.406;2023-07-08T10:15:58;101827.09;;;22.99;59.12
79540;BME280;68991;52.122;5.406;2023-07-08T10:18:31;101826.69;;;23.04;59.32
79540;BME280;68991;52.122;5.406;2023-07-08T10:24:22;101820.56;;;23.11;59.47
79540;BME280;68991;52.122;5.406;2023-07-08T10:26:49;101817.41;;;23.16;59.05
79540;BME280;68991;52.122;5.406;2023-07-08T10:29:36;101808.16;;;23.17;59.46
79540;BME280;68991;52.122;5.406;2023-07-08T10:32:33;101809.63;;;23.21;59.05
79540;BME280;68991;52.122;5.406;2023-07-08T10:35:16;101803.03;;;23.23;59.02
79540;BME280;68991;52.122;5.406;2023-07-08T10:40:33;101807.25;;;23.27;59.05
79540;BME280;68991;52.122;5.406;2023-07-08T10:43:44;101816.09;;;23.31;59.09
79540;BME280;68991;52.122;5.406;2023-07-08T10:46:32;101817.69;;;23.34;59.26
79540;BME280;68991;52.122;5.406;2023-07-08T10:57:08;101795.09;;;23.41;58.97
79540;BME280;68991;52.122;5.406;2023-07-08T10:59:41;101798.44;;;23.45;58.90
79540;BME280;68991;52.122;5.406;2023-07-08T11:07:44;101790.03;;;23.46;58.72
79540;BME280;68991;52.122;5.406;2023-07-08T11:10:34;101798.00;;;23.49;58.61
79540;BME280;68991;52.122;5.406;2023-07-08T11:13:16;101802.50;;;23.50;58.59
79540;BME280;68991;52.122;5.406;2023-07-08T11:16:21;101796.00;;;23.51;58.70
79540;BME280;68991;52.122;5.406;2023-07-08T11:19:04;101799.47;;;23.53;58.59
79540;BME280;68991;52.122;5.406;2023-07-08T11:21:40;101797.59;;;23.54;58.48
79540;BME280;68991;52.122;5.406;2023-07-08T11:27:14;101793.69;;;23.56;58.43
79540;BME280;68991;52.122;5.406;2023-07-08T11:29:49;101787.38;;;23.56;58.14
79540;BME280;68991;52.122;5.406;2023-07-08T11:32:20;101790.94;;;23.56;58.03
79540;BME280;68991;52.122;5.406;2023-07-08T11:34:48;101790.81;;;23.58;58.20
79540;BME280;68991;52.122;5.406;2023-07-08T11:37:17;101789.94;;;23.57;58.47
79540;BME280;68991;52.122;5.406;2023-07-08T11:39:58;101786.22;;;23.58;58.53
79540;BME280;68991;52.122;5.406;2023-07-08T11:42:44;101784.19;;;23.60;58.50
79540;BME280;68991;52.122;5.406;2023-07-08T11:45:37;101795.16;;;23.60;58.54
79540;BME280;68991;52.122;5.406;2023-07-08T11:48:06;101791.41;;;23.61;58.46
79540;BME280;68991;52.122;5.406;2023-07-08T11:50:38;101782.19;;;23.62;58.39
79540;BME280;68991;52.122;5.406;2023-07-08T11:56:01;101793.75;;;23.66;58.20
79540;BME280;68991;52.122;5.406;2023-07-08T11:58:29;101779.00;;;23.67;58.52
79540;BME280;68991;52.122;5.406;2023-07-08T12:01:04;101787.41;;;23.65;57.92
79540;BME280;68991;52.122;5.406;2023-07-08T12:03:49;101783.66;;;23.66;58.31
79540;BME280;68991;52.122;5.406;2023-07-08T12:08:57;101768.91;;;23.67;58.25
79540;BME280;68991;52.122;5.406;2023-07-08T12:11:43;101768.78;;;23.69;58.07
79540;BME280;68991;52.122;5.406;2023-07-08T12:14:10;101770.66;;;23.68;58.31
79540;BME280;68991;52.122;5.406;2023-07-08T12:16:37;101770.66;;;23.68;58.23
79540;BME280;68991;52.122;5.406;2023-07-08T12:19:04;101767.91;;;23.68;58.13
79540;BME280;68991;52.122;5.406;2023-07-08T12:21:35;101774.09;;;23.70;58.18
79540;BME280;68991;52.122;5.406;2023-07-08T12:24:06;101771.34;;;23.70;58.19
79540;BME280;68991;52.122;5.406;2023-07-08T12:26:33;101757.63;;;23.70;58.27
79540;BME280;68991;52.122;5.406;2023-07-08T12:29:00;101761.13;;;23.72;58.18
79540;BME280;68991;52.122;5.406;2023-07-08T12:31:26;101754.63;;;23.73;58.25
79540;BME280;68991;52.122;5.406;2023-07-08T12:33:54;101763.72;;;23.74;58.42
79540;BME280;68991;52.122;5.406;2023-07-08T12:36:23;101750.72;;;23.76;58.26
79540;BME280;68991;52.122;5.406;2023-07-08T12:38:55;101742.63;;;23.74;57.97
79540;BME280;68991;52.122;5.406;2023-07-08T12:41:30;101749.97;;;23.74;58.30
79540;BME280;68991;52.122;5.406;2023-07-08T12:43:57;101753.59;;;23.74;58.14
79540;BME280;68991;52.122;5.406;2023-07-08T12:46:25;101742.63;;;23.74;58.07
79540;BME280;68991;52.122;5.406;2023-07-08T12:48:52;101742.63;;;23.74;58.04
79540;BME280;68991;52.122;5.406;2023-07-08T12:51:21;101747.97;;;23.76;57.88
79540;BME280;68991;52.122;5.406;2023-07-08T12:53:50;101748.84;;;23.76;58.08
79540;BME280;68991;52.122;5.406;2023-07-08T12:56:18;101751.59;;;23.76;58.13
79540;BME280;68991;52.122;5.406;2023-07-08T12:58:49;101762.59;;;23.76;58.18
79540;BME280;68991;52.122;5.406;2023-07-08T13:01:19;101745.09;;;23.77;58.02
79540;BME280;68991;52.122;5.406;2023-07-08T13:03:48;101750.44;;;23.79;58.32
79540;BME280;68991;52.122;5.406;2023-07-08T13:06:17;101747.56;;;23.81;57.96
79540;BME280;68991;52.122;5.406;2023-07-08T13:08:46;101740.06;;;23.83;58.22
79540;BME280;68991;52.122;5.406;2023-07-08T13:11:15;101742.66;;;23.84;57.99
79540;BME280;68991;52.122;5.406;2023-07-08T13:13:48;101745.25;;;23.86;58.08
79540;BME280;68991;52.122;5.406;2023-07-08T13:16:17;101744.09;;;23.88;58.03
79540;BME280;68991;52.122;5.406;2023-07-08T13:18:43;101748.59;;;23.89;58.14
79540;BME280;68991;52.122;5.406;2023-07-08T13:21:13;101744.84;;;23.90;57.97
79540;BME280;68991;52.122;5.406;2023-07-08T13:23:41;101741.09;;;23.91;58.24
79540;BME280;68991;52.122;5.406;2023-07-08T13:26:26;101733.69;;;23.92;58.31
79540;BME280;68991;52.122;5.406;2023-07-08T13:29:14;101736.31;;;23.93;58.42
79540;BME280;68991;52.122;5.406;2023-07-08T13:31:46;101737.19;;;23.94;58.35
79540;BME280;68991;52.122;5.406;2023-07-08T13:34:18;101737.91;;;23.96;58.74
79540;BME280;68991;52.122;5.406;2023-07-08T13:36:48;101738.66;;;23.98;58.20
79540;BME280;68991;52.122;5.406;2023-07-08T13:41:53;101734.88;;;23.99;58.23
79540;BME280;68991;52.122;5.406;2023-07-08T13:44:20;101741.25;;;23.99;58.21
79540;BME280;68991;52.122;5.406;2023-07-08T13:46:53;101737.50;;;24.00;58.06
79540;BME280;68991;52.122;5.406;2023-07-08T13:49:30;101738.38;;;24.01;58.26
79540;BME280;68991;52.122;5.406;2023-07-08T13:54:42;101732.72;;;24.02;58.15
79540;BME280;68991;52.122;5.406;2023-07-08T13:57:12;101738.09;;;24.04;58.26